sensor_id;sensor_type;location;lat;lon;timestamp;temperature;humidity
49765;DHT22;35657;51.204;-4.130;2022-09-09T00:02:10;16.90;99.90
49765;DHT22;35657;51.204;-4.130;2022-09-09T00:04:41;16.90;99.90
49765;DHT22;35657;51.204;-4.130;2022-09-09T00:07:15;17.00;99.90
49765;DHT22;35657;51.204;-4.130;2022-09-09T00:09:59;17.00;99.90
49765;DHT22;35657;51.204;-4.130;2022-09-09T00:15:48;17.10;99.90
49765;DHT22;35657;51.204;-4.130;2022-09-09T00:21:15;17.10;99.90
49765;DHT22;35657;51.204;-4.130;2022-09-09T00:23:50;17.10;99.90
49765;DHT22;35657;51.204;-4.130;2022-09-09T00:26:20;17.00;99.90
49765;DHT22;35657;51.204;-4.130;2022-09-09T00:31:32;16.90;99.90
49765;DHT22;35657;51.204;-4.130;2022-09-09T00:34:18;16.90;99.90
49765;DHT22;35657;51.204;-4.130;2022-09-09T00:36:48;16.90;99.90
49765;DHT22;35657;51.204;-4.130;2022-09-09T00:39:42;16.90;99.90
49765;DHT22;35657;51.204;-4.130;2022-09-09T00:44:52;16.90;99.90
49765;DHT22;35657;51.204;-4.130;2022-09-09T00:47:46;16.90;99.90
49765;DHT22;35657;51.204;-4.130;2022-09-09T00:56:17;16.80;99.90
49765;DHT22;35657;51.204;-4.130;2022-09-09T00:59:15;16.80;99.90
49765;DHT22;35657;51.204;-4.130;2022-09-09T01:01:44;16.80;99.90
49765;DHT22;35657;51.204;-4.130;2022-09-09T01:04:13;16.70;99.90
49765;DHT22;35657;51.204;-4.130;2022-09-09T01:06:43;16.70;99.90
49765;DHT22;35657;51.204;-4.130;2022-09-09T01:09:30;16.70;99.90
49765;DHT22;35657;51.204;-4.130;2022-09-09T01:12:24;16.80;99.90
49765;DHT22;35657;51.204;-4.130;2022-09-09T01:15:18;16.70;99.90
49765;DHT22;35657;51.204;-4.130;2022-09-09T01:20:17;16.80;99.90
49765;DHT22;35657;51.204;-4.130;2022-09-09T01:28:08;16.70;99.90
49765;DHT22;35657;51.204;-4.130;2022-09-09T01:30:38;16.70;99.90
49765;DHT22;35657;51.204;-4.130;2022-09-09T01:33:04;16.60;99.90
49765;DHT22;35657;51.204;-4.130;2022-09-09T01:38:10;16.60;99.90
49765;DHT22;35657;51.204;-4.130;2022-09-09T01:40:36;16.60;99.90
49765;DHT22;35657;51.204;-4.130;2022-09-09T01:43:02;16.60;99.90
49765;DHT22;35657;51.204;-4.130;2022-09-09T01:45:29;16.60;99.90
49765;DHT22;35657;51.204;-4.130;2022-09-09T01:47:55;16.50;99.90
49765;DHT22;35657;51.204;-4.130;2022-09-09T01:50:22;16.50;99.90
49765;DHT22;35657;51.204;-4.130;2022-09-09T01:52:52;16.50;99.90
49765;DHT22;35657;51.204;-4.130;2022-09-09T01:55:28;16.50;99.90
49765;DHT22;35657;51.204;-4.130;2022-09-09T02:03:41;16.50;99.90
49765;DHT22;35657;51.204;-4.130;2022-09-09T02:06:38;16.40;99.90
49765;DHT22;35657;51.204;-4.130;2022-09-09T02:09:06;16.40;99.90
49765;DHT22;35657;51.204;-4.130;2022-09-09T02:11:33;16.40;99.90
49765;DHT22;35657;51.204;-4.130;2022-09-09T02:14:13;16.40;99.90
49765;DHT22;35657;51.204;-4.130;2022-09-09T02:19:22;16.40;99.90
49765;DHT22;35657;51.204;-4.130;2022-09-09T02:21:55;16.50;99.90
49765;DHT22;35657;51.204;-4.130;2022-09-09T02:24:22;16.50;99.90
49765;DHT22;35657;51.204;-4.130;2022-09-09T02:26:50;16.40;99.90
49765;DHT22;35657;51.204;-4.130;2022-09-09T02:29:31;16.40;99.90
49765;DHT22;35657;51.204;-4.130;2022-09-09T02:32:04;16.40;99.90
49765;DHT22;35657;51.204;-4.130;2022-09-09T02:34:35;16.40;99.90
49765;DHT22;35657;51.204;-4.130;2022-09-09T02:37:03;16.40;99.90
49765;DHT22;35657;51.204;-4.130;2022-09-09T02:39:29;16.40;99.90
49765;DHT22;35657;51.204;-4.130;2022-09-09T02:41:57;16.40;99.90
49765;DHT22;35657;51.204;-4.130;2022-09-09T02:44:23;16.40;99.90
49765;DHT22;35657;51.204;-4.130;2022-09-09T02:49:40;16.40;99.90
49765;DHT22;35657;51.204;-4.130;2022-09-09T02:52:20;16.40;99.90
49765;DHT22;35657;51.204;-4.130;2022-09-09T02:54:50;16.40;99.90
49765;DHT22;35657;51.204;-4.130;2022-09-09T02:57:23;16.40;99.90
49765;DHT22;35657;51.204;-4.130;2022-09-09T02:59:50;16.40;99.90
49765;DHT22;35657;51.204;-4.130;2022-09-09T03:02:18;16.40;99.90
49765;DHT22;35657;51.204;-4.130;2022-09-09T03:04:44;16.40;99.90
49765;DHT22;35657;51.204;-4.130;2022-09-09T03:07:11;16.40;99.90
49765;DHT22;35657;51.204;-4.130;2022-09-09T03:09:37;16.40;99.90
49765;DHT22;35657;51.204;-4.130;2022-09-09T03:12:03;16.40;99.90
49765;DHT22;35657;51.204;-4.130;2022-09-09T03:14:32;16.40;99.90
49765;DHT22;35657;51.204;-4.130;2022-09-09T03:16:58;16.40;99.90
49765;DHT22;35657;51.204;-4.130;2022-09-09T03:19:26;16.40;99.90
49765;DHT22;35657;51.204;-4.130;2022-09-09T03:21:53;16.50;99.90
49765;DHT22;35657;51.204;-4.130;2022-09-09T03:24:19;16.50;99.90
49765;DHT22;35657;51.204;-4.130;2022-09-09T03:26:45;16.50;99.90
49765;DHT22;35657;51.204;-4.130;2022-09-09T03:29:11;16.50;99.90
49765;DHT22;35657;51.204;-4.130;2022-09-09T03:31:38;16.50;99.90
49765;DHT22;35657;51.204;-4.130;2022-09-09T03:34:04;16.50;99.90
49765;DHT22;35657;51.204;-4.130;2022-09-09T03:36:32;16.50;99.90
49765;DHT22;35657;51.204;-4.130;2022-09-09T03:38:57;16.40;99.90
49765;DHT22;35657;51.204;-4.130;2022-09-09T03:41:23;16.40;99.90
49765;DHT22;35657;51.204;-4.130;2022-09-09T03:43:53;16.40;99.90
49765;DHT22;35657;51.204;-4.130;2022-09-09T03:46:24;16.40;99.90
49765;DHT22;35657;51.204;-4.130;2022-09-09T03:48:50;16.40;99.90
49765;DHT22;35657;51.204;-4.130;2022-09-09T03:51:18;16.40;99.90
49765;DHT22;35657;51.204;-4.130;2022-09-09T03:53:44;16.40;99.90
49765;DHT22;35657;51.204;-4.130;2022-09-09T03:56:10;16.40;99.90
49765;DHT22;35657;51.204;-4.130;2022-09-09T03:58:36;16.40;99.90
49765;DHT22;35657;51.204;-4.130;2022-09-09T04:01:05;16.40;99.90
49765;DHT22;35657;51.204;-4.130;2022-09-09T04:03:32;16.40;99.90
49765;DHT22;35657;51.204;-4.130;2022-09-09T04:05:59;16.40;99.90
49765;DHT22;35657;51.204;-4.130;2022-09-09T04:08:26;16.40;99.90
49765;DHT22;35657;51.204;-4.130;2022-09-09T04:10:52;16.40;99.90
49765;DHT22;35657;51.204;-4.130;2022-09-09T04:13:18;16.40;99.90
49765;DHT22;35657;51.204;-4.130;2022-09-09T04:15:51;16.40;99.90
49765;DHT22;35657;51.204;-4.130;2022-09-09T04:18:18;16.50;99.90
49765;DHT22;35657;51.204;-4.130;2022-09-09T04:20:49;16.50;99.90
49765;DHT22;35657;51.204;-4.130;2022-09-09T04:23:16;16.50;99.90
49765;DHT22;35657;51.204;-4.130;2022-09-09T04:25:48;16.50;99.90
49765;DHT22;35657;51.204;-4.130;2022-09-09T04:28:14;16.50;99.90
49765;DHT22;35657;51.204;-4.130;2022-09-09T04:30:41;16.50;99.90
49765;DHT22;35657;51.204;-4.130;2022-09-09T04:33:07;16.50;99.90
49765;DHT22;35657;51.204;-4.130;2022-09-09T04:35:33;16.50;99.90
49765;DHT22;35657;51.204;-4.130;2022-09-09T04:37:59;16.50;99.90
49765;DHT22;35657;51.204;-4.130;2022-09-09T04:40:25;16.60;99.90
49765;DHT22;35657;51.204;-4.130;2022-09-09T04:42:51;16.60;99.90
49765;DHT22;35657;51.204;-4.130;2022-09-09T04:45:17;16.60;99.90
49765;DHT22;35657;51.204;-4.130;2022-09-09T04:47:44;16.60;99.90
49765;DHT22;35657;51.204;-4.130;2022-09-09T04:50:09;16.60;99.90
49765;DHT22;35657;51.204;-4.130;2022-09-09T04:52:35;16.60;99.90
49765;DHT22;35657;51.204;-4.130;2022-09-09T04:55:01;16.60;99.90
49765;DHT22;35657;51.204;-4.130;2022-09-09T04:57:27;16.60;99.90
49765;DHT22;35657;51.204;-4.130;2022-09-09T04:59:54;16.60;99.90
49765;DHT22;35657;51.204;-4.130;2022-09-09T05:02:19;16.60;99.90
49765;DHT22;35657;51.204;-4.130;2022-09-09T05:04:45;16.60;99.90
49765;DHT22;35657;51.204;-4.130;2022-09-09T05:07:11;16.60;99.90
49765;DHT22;35657;51.204;-4.130;2022-09-09T05:09:36;16.60;99.90
49765;DHT22;35657;51.204;-4.130;2022-09-09T05:12:02;16.60;99.90
49765;DHT22;35657;51.204;-4.130;2022-09-09T05:14:28;16.60;99.90
49765;DHT22;35657;51.204;-4.130;2022-09-09T05:16:55;16.60;99.90
49765;DHT22;35657;51.204;-4.130;2022-09-09T05:19:21;16.70;99.90
49765;DHT22;35657;51.204;-4.130;2022-09-09T05:21:47;16.70;99.90
49765;DHT22;35657;51.204;-4.130;2022-09-09T05:24:13;16.70;99.90
49765;DHT22;35657;51.204;-4.130;2022-09-09T05:26:39;16.70;99.90
49765;DHT22;35657;51.204;-4.130;2022-09-09T05:29:05;16.60;99.90
49765;DHT22;35657;51.204;-4.130;2022-09-09T05:31:31;16.70;99.90
49765;DHT22;35657;51.204;-4.130;2022-09-09T05:33:58;16.70;99.90
49765;DHT22;35657;51.204;-4.130;2022-09-09T05:36:24;16.60;99.90
49765;DHT22;35657;51.204;-4.130;2022-09-09T05:38:50;16.60;99.90
49765;DHT22;35657;51.204;-4.130;2022-09-09T05:41:17;16.50;99.90
49765;DHT22;35657;51.204;-4.130;2022-09-09T05:43:43;16.50;99.90
49765;DHT22;35657;51.204;-4.130;2022-09-09T05:46:15;16.40;99.90
49765;DHT22;35657;51.204;-4.130;2022-09-09T05:48:42;16.40;99.90
49765;DHT22;35657;51.204;-4.130;2022-09-09T05:51:10;16.40;99.90
49765;DHT22;35657;51.204;-4.130;2022-09-09T05:53:38;16.40;99.90
49765;DHT22;35657;51.204;-4.130;2022-09-09T05:56:06;16.30;99.90
49765;DHT22;35657;51.204;-4.130;2022-09-09T05:58:33;16.30;99.90
49765;DHT22;35657;51.204;-4.130;2022-09-09T06:03:34;16.20;99.90
49765;DHT22;35657;51.204;-4.130;2022-09-09T06:06:02;16.20;99.90
49765;DHT22;35657;51.204;-4.130;2022-09-09T06:08:31;16.20;99.90
49765;DHT22;35657;51.204;-4.130;2022-09-09T06:11:04;16.10;99.90
49765;DHT22;35657;51.204;-4.130;2022-09-09T06:13:31;16.10;99.90
49765;DHT22;35657;51.204;-4.130;2022-09-09T06:15:57;16.10;99.90
49765;DHT22;35657;51.204;-4.130;2022-09-09T06:18:24;16.20;99.90
49765;DHT22;35657;51.204;-4.130;2022-09-09T06:21:01;16.20;99.90
49765;DHT22;35657;51.204;-4.130;2022-09-09T06:23:30;16.20;99.90
49765;DHT22;35657;51.204;-4.130;2022-09-09T06:28:35;16.30;99.90
49765;DHT22;35657;51.204;-4.130;2022-09-09T06:31:03;16.30;99.90
49765;DHT22;35657;51.204;-4.130;2022-09-09T06:33:35;16.40;99.90
49765;DHT22;35657;51.204;-4.130;2022-09-09T06:36:02;16.30;99.90
49765;DHT22;35657;51.204;-4.130;2022-09-09T06:38:29;16.30;99.90
49765;DHT22;35657;51.204;-4.130;2022-09-09T06:40:56;16.20;99.90
49765;DHT22;35657;51.204;-4.130;2022-09-09T06:43:24;16.20;99.90
49765;DHT22;35657;51.204;-4.130;2022-09-09T06:45:57;16.10;99.90
49765;DHT22;35657;51.204;-4.130;2022-09-09T06:48:23;16.20;99.90
49765;DHT22;35657;51.204;-4.130;2022-09-09T06:50:59;16.20;99.90
49765;DHT22;35657;51.204;-4.130;2022-09-09T06:53:26;16.20;99.90
49765;DHT22;35657;51.204;-4.130;2022-09-09T06:55:53;16.20;99.90
49765;DHT22;35657;51.204;-4.130;2022-09-09T06:58:18;16.20;99.90
49765;DHT22;35657;51.204;-4.130;2022-09-09T07:00:44;16.20;99.90
49765;DHT22;35657;51.204;-4.130;2022-09-09T07:03:10;16.20;99.90
49765;DHT22;35657;51.204;-4.130;2022-09-09T07:05:36;16.30;99.90
49765;DHT22;35657;51.204;-4.130;2022-09-09T07:08:02;16.30;99.90
49765;DHT22;35657;51.204;-4.130;2022-09-09T07:10:28;16.30;99.90
49765;DHT22;35657;51.204;-4.130;2022-09-09T07:12:53;16.30;99.90
49765;DHT22;35657;51.204;-4.130;2022-09-09T07:15:20;16.30;99.90
49765;DHT22;35657;51.204;-4.130;2022-09-09T07:17:48;16.30;99.90
49765;DHT22;35657;51.204;-4.130;2022-09-09T07:20:14;16.30;99.90
49765;DHT22;35657;51.204;-4.130;2022-09-09T07:22:40;16.30;99.90
49765;DHT22;35657;51.204;-4.130;2022-09-09T07:25:07;16.30;99.90
49765;DHT22;35657;51.204;-4.130;2022-09-09T07:27:33;16.30;99.90
49765;DHT22;35657;51.204;-4.130;2022-09-09T07:29:58;16.30;99.90
49765;DHT22;35657;51.204;-4.130;2022-09-09T07:32:24;16.30;99.90
49765;DHT22;35657;51.204;-4.130;2022-09-09T07:34:51;16.40;99.90
49765;DHT22;35657;51.204;-4.130;2022-09-09T07:37:17;16.40;99.90
49765;DHT22;35657;51.204;-4.130;2022-09-09T07:39:43;16.40;99.90
49765;DHT22;35657;51.204;-4.130;2022-09-09T07:42:09;16.50;99.90
49765;DHT22;35657;51.204;-4.130;2022-09-09T07:44:37;16.40;99.90
49765;DHT22;35657;51.204;-4.130;2022-09-09T07:47:05;16.50;99.90
49765;DHT22;35657;51.204;-4.130;2022-09-09T07:49:31;16.50;99.90
49765;DHT22;35657;51.204;-4.130;2022-09-09T07:51:58;16.50;99.90
49765;DHT22;35657;51.204;-4.130;2022-09-09T07:54:24;16.50;99.90
49765;DHT22;35657;51.204;-4.130;2022-09-09T07:56:51;16.60;99.90
49765;DHT22;35657;51.204;-4.130;2022-09-09T07:59:17;16.60;99.90
49765;DHT22;35657;51.204;-4.130;2022-09-09T08:01:47;16.60;99.90
49765;DHT22;35657;51.204;-4.130;2022-09-09T08:04:17;16.60;99.90
49765;DHT22;35657;51.204;-4.130;2022-09-09T08:06:46;16.60;99.90
49765;DHT22;35657;51.204;-4.130;2022-09-09T08:09:13;16.60;99.90
49765;DHT22;35657;51.204;-4.130;2022-09-09T08:11:40;16.60;99.90
49765;DHT22;35657;51.204;-4.130;2022-09-09T08:14:09;16.70;99.90
49765;DHT22;35657;51.204;-4.130;2022-09-09T08:16:40;16.70;99.90
49765;DHT22;35657;51.204;-4.130;2022-09-09T08:19:07;16.70;99.90
49765;DHT22;35657;51.204;-4.130;2022-09-09T08:21:34;16.80;99.90
49765;DHT22;35657;51.204;-4.130;2022-09-09T08:24:03;16.80;99.90
49765;DHT22;35657;51.204;-4.130;2022-09-09T08:26:41;16.90;99.90
49765;DHT22;35657;51.204;-4.130;2022-09-09T08:29:08;17.00;99.90
49765;DHT22;35657;51.204;-4.130;2022-09-09T08:31:36;17.00;99.90
49765;DHT22;35657;51.204;-4.130;2022-09-09T08:34:03;17.00;99.90
49765;DHT22;35657;51.204;-4.130;2022-09-09T08:36:35;17.00;99.90
49765;DHT22;35657;51.204;-4.130;2022-09-09T08:39:01;17.00;99.90
49765;DHT22;35657;51.204;-4.130;2022-09-09T08:47:52;16.90;99.90
49765;DHT22;35657;51.204;-4.130;2022-09-09T08:50:25;16.80;99.90
49765;DHT22;35657;51.204;-4.130;2022-09-09T08:55:58;16.90;99.90
49765;DHT22;35657;51.204;-4.130;2022-09-09T08:58:28;16.90;99.90
49765;DHT22;35657;51.204;-4.130;2022-09-09T09:11:57;16.90;99.90
49765;DHT22;35657;51.204;-4.130;2022-09-09T09:14:32;16.90;99.90
49765;DHT22;35657;51.204;-4.130;2022-09-09T09:17:19;17.10;99.90
49765;DHT22;35657;51.204;-4.130;2022-09-09T09:19:47;17.20;99.90
49765;DHT22;35657;51.204;-4.130;2022-09-09T09:28:02;17.70;99.90
49765;DHT22;35657;51.204;-4.130;2022-09-09T09:30:55;17.60;99.90
49765;DHT22;35657;51.204;-4.130;2022-09-09T09:36:09;18.10;99.90
49765;DHT22;35657;51.204;-4.130;2022-09-09T09:38:36;18.00;99.90
49765;DHT22;35657;51.204;-4.130;2022-09-09T09:41:03;17.90;99.90
49765;DHT22;35657;51.204;-4.130;2022-09-09T09:45:58;18.20;99.90
49765;DHT22;35657;51.204;-4.130;2022-09-09T09:48:26;18.10;99.90
49765;DHT22;35657;51.204;-4.130;2022-09-09T09:50:55;18.10;99.90
49765;DHT22;35657;51.204;-4.130;2022-09-09T09:56:03;18.30;99.90
49765;DHT22;35657;51.204;-4.130;2022-09-09T09:58:32;18.20;99.90
49765;DHT22;35657;51.204;-4.130;2022-09-09T10:01:00;18.30;99.90
49765;DHT22;35657;51.204;-4.130;2022-09-09T10:03:30;18.50;99.90
49765;DHT22;35657;51.204;-4.130;2022-09-09T10:05:56;18.60;99.90
49765;DHT22;35657;51.204;-4.130;2022-09-09T10:08:27;18.60;99.90
49765;DHT22;35657;51.204;-4.130;2022-09-09T10:19:34;18.70;99.90
49765;DHT22;35657;51.204;-4.130;2022-09-09T10:34:04;19.40;99.90
49765;DHT22;35657;51.204;-4.130;2022-09-09T10:36:39;19.60;99.90
49765;DHT22;35657;51.204;-4.130;2022-09-09T10:42:09;18.90;99.90
49765;DHT22;35657;51.204;-4.130;2022-09-09T10:55:22;18.90;99.90
49765;DHT22;35657;51.204;-4.130;2022-09-09T10:57:53;18.80;99.90
49765;DHT22;35657;51.204;-4.130;2022-09-09T11:00:40;18.90;99.90
49765;DHT22;35657;51.204;-4.130;2022-09-09T11:03:26;18.90;99.90
49765;DHT22;35657;51.204;-4.130;2022-09-09T11:06:05;18.90;99.90
49765;DHT22;35657;51.204;-4.130;2022-09-09T11:08:34;18.60;99.90
49765;DHT22;35657;51.204;-4.130;2022-09-09T11:11:06;18.50;99.90
49765;DHT22;35657;51.204;-4.130;2022-09-09T11:13:57;18.60;99.90
49765;DHT22;35657;51.204;-4.130;2022-09-09T11:16:33;18.50;99.90
49765;DHT22;35657;51.204;-4.130;2022-09-09T11:19:24;18.70;99.90
49765;DHT22;35657;51.204;-4.130;2022-09-09T11:21:52;18.70;99.90
49765;DHT22;35657;51.204;-4.130;2022-09-09T11:24:29;18.70;99.90
49765;DHT22;35657;51.204;-4.130;2022-09-09T11:27:16;18.80;99.90
49765;DHT22;35657;51.204;-4.130;2022-09-09T11:29:45;18.70;99.90
49765;DHT22;35657;51.204;-4.130;2022-09-09T11:35:55;18.70;99.90
49765;DHT22;35657;51.204;-4.130;2022-09-09T11:41:01;19.30;99.90
49765;DHT22;35657;51.204;-4.130;2022-09-09T11:43:31;19.30;99.90
49765;DHT22;35657;51.204;-4.130;2022-09-09T11:46:00;19.40;99.90
49765;DHT22;35657;51.204;-4.130;2022-09-09T11:48:39;19.40;99.90
49765;DHT22;35657;51.204;-4.130;2022-09-09T11:51:06;19.40;99.90
49765;DHT22;35657;51.204;-4.130;2022-09-09T11:53:34;19.40;99.90
49765;DHT22;35657;51.204;-4.130;2022-09-09T11:56:09;19.30;99.90
49765;DHT22;35657;51.204;-4.130;2022-09-09T11:58:42;19.30;99.90
49765;DHT22;35657;51.204;-4.130;2022-09-09T12:01:41;19.40;99.90
49765;DHT22;35657;51.204;-4.130;2022-09-09T12:06:56;19.40;99.90
49765;DHT22;35657;51.204;-4.130;2022-09-09T12:12:29;19.40;99.90
49765;DHT22;35657;51.204;-4.130;2022-09-09T12:14:59;19.30;99.90
49765;DHT22;35657;51.204;-4.130;2022-09-09T12:17:28;19.30;99.90
49765;DHT22;35657;51.204;-4.130;2022-09-09T12:28:32;19.30;99.90
49765;DHT22;35657;51.204;-4.130;2022-09-09T12:39:59;19.60;99.90
49765;DHT22;35657;51.204;-4.130;2022-09-09T12:42:26;19.80;99.90
49765;DHT22;35657;51.204;-4.130;2022-09-09T12:44:57;19.80;99.90
49765;DHT22;35657;51.204;-4.130;2022-09-09T12:47:40;19.90;99.90
49765;DHT22;35657;51.204;-4.130;2022-09-09T12:50:29;19.70;99.90
49765;DHT22;35657;51.204;-4.130;2022-09-09T12:53:01;19.70;99.90
49765;DHT22;35657;51.204;-4.130;2022-09-09T12:55:32;19.60;99.90
49765;DHT22;35657;51.204;-4.130;2022-09-09T12:58:00;19.60;99.90
49765;DHT22;35657;51.204;-4.130;2022-09-09T13:00:30;19.60;99.90
49765;DHT22;35657;51.204;-4.130;2022-09-09T13:03:01;19.60;99.90
49765;DHT22;35657;51.204;-4.130;2022-09-09T13:05:31;19.50;99.90
49765;DHT22;35657;51.204;-4.130;2022-09-09T13:08:04;19.50;99.90
49765;DHT22;35657;51.204;-4.130;2022-09-09T13:10:35;19.40;99.90
49765;DHT22;35657;51.204;-4.130;2022-09-09T13:13:05;19.40;99.90
49765;DHT22;35657;51.204;-4.130;2022-09-09T13:15:38;19.30;99.90
49765;DHT22;35657;51.204;-4.130;2022-09-09T13:18:07;19.30;99.90
49765;DHT22;35657;51.204;-4.130;2022-09-09T13:20:36;19.10;99.90
49765;DHT22;35657;51.204;-4.130;2022-09-09T13:23:02;19.00;99.90
49765;DHT22;35657;51.204;-4.130;2022-09-09T13:25:29;19.00;99.90
49765;DHT22;35657;51.204;-4.130;2022-09-09T13:28:18;19.00;99.90
49765;DHT22;35657;51.204;-4.130;2022-09-09T13:30:56;19.00;99.90
49765;DHT22;35657;51.204;-4.130;2022-09-09T13:33:46;19.00;99.90
49765;DHT22;35657;51.204;-4.130;2022-09-09T13:36:13;19.00;99.90
49765;DHT22;35657;51.204;-4.130;2022-09-09T13:41:34;19.00;99.90
49765;DHT22;35657;51.204;-4.130;2022-09-09T13:44:01;19.10;99.90
49765;DHT22;35657;51.204;-4.130;2022-09-09T13:46:37;19.00;99.90
49765;DHT22;35657;51.204;-4.130;2022-09-09T13:49:21;18.70;99.90
49765;DHT22;35657;51.204;-4.130;2022-09-09T13:52:02;18.40;99.90
49765;DHT22;35657;51.204;-4.130;2022-09-09T13:54:27;18.50;99.90
49765;DHT22;35657;51.204;-4.130;2022-09-09T13:56:53;18.40;99.90
49765;DHT22;35657;51.204;-4.130;2022-09-09T13:59:20;18.40;99.90
49765;DHT22;35657;51.204;-4.130;2022-09-09T14:01:47;18.40;99.90
49765;DHT22;35657;51.204;-4.130;2022-09-09T14:04:14;18.40;99.90
49765;DHT22;35657;51.204;-4.130;2022-09-09T14:06:41;18.40;99.90
49765;DHT22;35657;51.204;-4.130;2022-09-09T14:09:10;18.40;99.90
49765;DHT22;35657;51.204;-4.130;2022-09-09T14:11:37;18.20;99.90
49765;DHT22;35657;51.204;-4.130;2022-09-09T14:14:03;18.00;99.90
49765;DHT22;35657;51.204;-4.130;2022-09-09T14:16:28;18.00;99.90
49765;DHT22;35657;51.204;-4.130;2022-09-09T14:18:55;18.00;99.90
49765;DHT22;35657;51.204;-4.130;2022-09-09T14:21:21;18.10;99.90
49765;DHT22;35657;51.204;-4.130;2022-09-09T14:23:47;18.20;99.90
49765;DHT22;35657;51.204;-4.130;2022-09-09T14:26:14;18.10;99.90
49765;DHT22;35657;51.204;-4.130;2022-09-09T14:28:40;18.10;99.90
49765;DHT22;35657;51.204;-4.130;2022-09-09T14:31:06;18.10;99.90
49765;DHT22;35657;51.204;-4.130;2022-09-09T14:33:32;18.20;99.90
49765;DHT22;35657;51.204;-4.130;2022-09-09T14:36:00;18.40;99.90
49765;DHT22;35657;51.204;-4.130;2022-09-09T14:38:29;18.40;99.90
49765;DHT22;35657;51.204;-4.130;2022-09-09T14:40:55;18.30;99.90
49765;DHT22;35657;51.204;-4.130;2022-09-09T14:43:22;18.40;99.90
49765;DHT22;35657;51.204;-4.130;2022-09-09T14:45:47;18.30;99.90
49765;DHT22;35657;51.204;-4.130;2022-09-09T14:48:14;18.20;99.90
49765;DHT22;35657;51.204;-4.130;2022-09-09T14:50:40;18.20;99.90
49765;DHT22;35657;51.204;-4.130;2022-09-09T14:53:07;18.20;99.90
49765;DHT22;35657;51.204;-4.130;2022-09-09T14:55:34;18.10;99.90
49765;DHT22;35657;51.204;-4.130;2022-09-09T14:58:00;18.20;99.90
49765;DHT22;35657;51.204;-4.130;2022-09-09T15:00:26;18.20;99.90
49765;DHT22;35657;51.204;-4.130;2022-09-09T15:02:53;18.20;99.90
49765;DHT22;35657;51.204;-4.130;2022-09-09T15:05:18;18.20;99.90
49765;DHT22;35657;51.204;-4.130;2022-09-09T15:07:45;18.30;99.90
49765;DHT22;35657;51.204;-4.130;2022-09-09T15:10:11;18.40;99.90
49765;DHT22;35657;51.204;-4.130;2022-09-09T15:12:37;18.50;99.90
49765;DHT22;35657;51.204;-4.130;2022-09-09T15:15:04;18.50;99.90
49765;DHT22;35657;51.204;-4.130;2022-09-09T15:17:30;18.40;99.90
49765;DHT22;35657;51.204;-4.130;2022-09-09T15:19:56;18.30;99.90
49765;DHT22;35657;51.204;-4.130;2022-09-09T15:22:22;18.30;99.90
49765;DHT22;35657;51.204;-4.130;2022-09-09T15:24:47;18.40;99.90
49765;DHT22;35657;51.204;-4.130;2022-09-09T15:27:13;18.40;99.90
49765;DHT22;35657;51.204;-4.130;2022-09-09T15:29:40;18.50;99.90
49765;DHT22;35657;51.204;-4.130;2022-09-09T15:32:07;18.70;99.90
49765;DHT22;35657;51.204;-4.130;2022-09-09T15:34:33;18.50;99.90
49765;DHT22;35657;51.204;-4.130;2022-09-09T15:36:59;18.50;99.90
49765;DHT22;35657;51.204;-4.130;2022-09-09T15:39:28;18.50;99.90
49765;DHT22;35657;51.204;-4.130;2022-09-09T15:41:54;18.50;99.90
49765;DHT22;35657;51.204;-4.130;2022-09-09T15:44:19;18.50;99.90
49765;DHT22;35657;51.204;-4.130;2022-09-09T15:46:52;18.60;99.90
49765;DHT22;35657;51.204;-4.130;2022-09-09T15:49:25;18.70;99.90
49765;DHT22;35657;51.204;-4.130;2022-09-09T15:51:56;18.70;99.90
49765;DHT22;35657;51.204;-4.130;2022-09-09T15:54:33;18.60;99.90
49765;DHT22;35657;51.204;-4.130;2022-09-09T15:57:02;18.50;99.90
49765;DHT22;35657;51.204;-4.130;2022-09-09T15:59:30;18.40;99.90
49765;DHT22;35657;51.204;-4.130;2022-09-09T16:01:56;18.40;99.90
49765;DHT22;35657;51.204;-4.130;2022-09-09T16:04:23;18.30;99.90
49765;DHT22;35657;51.204;-4.130;2022-09-09T16:06:54;18.20;99.90
49765;DHT22;35657;51.204;-4.130;2022-09-09T16:09:20;18.20;99.90
49765;DHT22;35657;51.204;-4.130;2022-09-09T16:11:47;18.20;99.90
49765;DHT22;35657;51.204;-4.130;2022-09-09T16:14:14;18.10;99.90
49765;DHT22;35657;51.204;-4.130;2022-09-09T16:16:41;18.10;99.90
49765;DHT22;35657;51.204;-4.130;2022-09-09T16:19:12;18.10;99.90
49765;DHT22;35657;51.204;-4.130;2022-09-09T16:21:48;18.10;99.90
49765;DHT22;35657;51.204;-4.130;2022-09-09T16:24:17;18.00;99.90
49765;DHT22;35657;51.204;-4.130;2022-09-09T16:26:46;18.10;99.90
49765;DHT22;35657;51.204;-4.130;2022-09-09T16:29:13;18.10;99.90
49765;DHT22;35657;51.204;-4.130;2022-09-09T16:31:40;18.10;99.90
49765;DHT22;35657;51.204;-4.130;2022-09-09T16:34:07;18.20;99.90
49765;DHT22;35657;51.204;-4.130;2022-09-09T16:36:35;18.20;99.90
49765;DHT22;35657;51.204;-4.130;2022-09-09T16:39:07;18.40;99.90
49765;DHT22;35657;51.204;-4.130;2022-09-09T16:41:35;18.40;99.90
49765;DHT22;35657;51.204;-4.130;2022-09-09T16:44:03;18.40;99.90
49765;DHT22;35657;51.204;-4.130;2022-09-09T16:46:31;18.40;99.90
49765;DHT22;35657;51.204;-4.130;2022-09-09T16:48:59;18.40;99.90
49765;DHT22;35657;51.204;-4.130;2022-09-09T16:51:30;18.20;99.90
49765;DHT22;35657;51.204;-4.130;2022-09-09T16:53:59;18.00;99.90
49765;DHT22;35657;51.204;-4.130;2022-09-09T16:56:27;18.00;99.90
49765;DHT22;35657;51.204;-4.130;2022-09-09T16:58:58;17.90;99.90
49765;DHT22;35657;51.204;-4.130;2022-09-09T17:01:29;17.70;99.90
49765;DHT22;35657;51.204;-4.130;2022-09-09T17:03:57;17.60;99.90
49765;DHT22;35657;51.204;-4.130;2022-09-09T17:06:23;17.50;99.90
49765;DHT22;35657;51.204;-4.130;2022-09-09T17:08:57;17.50;99.90
49765;DHT22;35657;51.204;-4.130;2022-09-09T17:11:24;17.50;99.90
49765;DHT22;35657;51.204;-4.130;2022-09-09T17:13:50;17.50;99.90
49765;DHT22;35657;51.204;-4.130;2022-09-09T17:16:19;17.40;99.90
49765;DHT22;35657;51.204;-4.130;2022-09-09T17:18:48;17.40;99.90
49765;DHT22;35657;51.204;-4.130;2022-09-09T17:21:15;17.40;99.90
49765;DHT22;35657;51.204;-4.130;2022-09-09T17:23:42;17.40;99.90
49765;DHT22;35657;51.204;-4.130;2022-09-09T17:26:13;17.40;99.90
49765;DHT22;35657;51.204;-4.130;2022-09-09T17:28:41;17.40;99.90
49765;DHT22;35657;51.204;-4.130;2022-09-09T17:31:08;17.40;99.90
49765;DHT22;35657;51.204;-4.130;2022-09-09T17:33:36;17.40;99.90
49765;DHT22;35657;51.204;-4.130;2022-09-09T17:36:07;17.30;99.90
49765;DHT22;35657;51.204;-4.130;2022-09-09T17:38:34;17.30;99.90
49765;DHT22;35657;51.204;-4.130;2022-09-09T17:41:29;17.40;99.90
49765;DHT22;35657;51.204;-4.130;2022-09-09T17:43:53;17.40;99.90
49765;DHT22;35657;51.204;-4.130;2022-09-09T17:46:20;17.40;99.90
49765;DHT22;35657;51.204;-4.130;2022-09-09T17:48:47;17.40;99.90
49765;DHT22;35657;51.204;-4.130;2022-09-09T17:51:17;17.40;99.90
49765;DHT22;35657;51.204;-4.130;2022-09-09T17:53:47;17.40;99.90
49765;DHT22;35657;51.204;-4.130;2022-09-09T17:56:16;17.40;99.90